sensor_id;sensor_type;location;lat;lon;timestamp;pressure;altitude;pressure_sealevel;temperature
64947;BMP280;51469;52.150;4.682;2023-04-12T00:00:53;100601.66;;;13.96
64947;BMP280;51469;52.150;4.682;2023-04-12T00:03:18;100609.59;;;13.90
64947;BMP280;51469;52.150;4.682;2023-04-12T00:05:45;100588.94;;;13.51
64947;BMP280;51469;52.150;4.682;2023-04-12T00:08:11;100583.75;;;13.60
64947;BMP280;51469;52.150;4.682;2023-04-12T00:10:36;100580.59;;;13.65
64947;BMP280;51469;52.150;4.682;2023-04-12T00:13:02;100564.81;;;13.69
64947;BMP280;51469;52.150;4.682;2023-04-12T00:15:27;100568.03;;;13.60
64947;BMP280;51469;52.150;4.682;2023-04-12T00:17:53;100541.25;;;13.61
64947;BMP280;51469;52.150;4.682;2023-04-12T00:20:18;100553.44;;;13.60
64947;BMP280;51469;52.150;4.682;2023-04-12T00:22:43;100544.34;;;13.63
64947;BMP280;51469;52.150;4.682;2023-04-12T00:25:09;100521.88;;;13.68
64947;BMP280;51469;52.150;4.682;2023-04-12T00:27:35;100522.38;;;13.56
64947;BMP280;51469;52.150;4.682;2023-04-12T00:30:01;100504.34;;;13.44
64947;BMP280;51469;52.150;4.682;2023-04-12T00:32:27;100502.72;;;13.54
64947;BMP280;51469;52.150;4.682;2023-04-12T00:34:52;100488.53;;;13.52
64947;BMP280;51469;52.150;4.682;2023-04-12T00:37:18;100479.03;;;13.56
64947;BMP280;51469;52.150;4.682;2023-04-12T00:39:43;100457.72;;;13.67
64947;BMP280;51469;52.150;4.682;2023-04-12T00:42:08;100448.88;;;13.35
64947;BMP280;51469;52.150;4.682;2023-04-12T00:44:34;100458.66;;;13.47
64947;BMP280;51469;52.150;4.682;2023-04-12T00:47:00;100468.81;;;13.57
64947;BMP280;51469;52.150;4.682;2023-04-12T00:49:27;100456.91;;;13.74
64947;BMP280;51469;52.150;4.682;2023-04-12T00:52:00;100439.56;;;13.73
64947;BMP280;51469;52.150;4.682;2023-04-12T00:54:28;100421.50;;;13.62
64947;BMP280;51469;52.150;4.682;2023-04-12T00:56:54;100431.72;;;13.65
64947;BMP280;51469;52.150;4.682;2023-04-12T00:59:22;100427.91;;;13.52
64947;BMP280;51469;52.150;4.682;2023-04-12T01:01:47;100414.88;;;13.59
64947;BMP280;51469;52.150;4.682;2023-04-12T01:04:13;100416.19;;;13.37
64947;BMP280;51469;52.150;4.682;2023-04-12T01:14:58;100383.28;;;13.20
64947;BMP280;51469;52.150;4.682;2023-04-12T01:17:30;100380.06;;;13.25
64947;BMP280;51469;52.150;4.682;2023-04-12T01:20:08;100368.72;;;13.23
64947;BMP280;51469;52.150;4.682;2023-04-12T01:25:38;100349.41;;;13.26
64947;BMP280;51469;52.150;4.682;2023-04-12T01:28:08;100351.63;;;13.42
64947;BMP280;51469;52.150;4.682;2023-04-12T01:30:35;100336.72;;;13.36
64947;BMP280;51469;52.150;4.682;2023-04-12T01:33:04;100325.22;;;13.48
64947;BMP280;51469;52.150;4.682;2023-04-12T01:35:31;100316.16;;;13.44
64947;BMP280;51469;52.150;4.682;2023-04-12T01:37:57;100322.72;;;13.13
64947;BMP280;51469;52.150;4.682;2023-04-12T01:40:25;100291.03;;;13.38
64947;BMP280;51469;52.150;4.682;2023-04-12T01:43:08;100293.59;;;13.12
64947;BMP280;51469;52.150;4.682;2023-04-12T01:45:34;100292.75;;;13.22
64947;BMP280;51469;52.150;4.682;2023-04-12T01:48:00;100294.34;;;13.19
64947;BMP280;51469;52.150;4.682;2023-04-12T01:50:44;100275.78;;;13.27
64947;BMP280;51469;52.150;4.682;2023-04-12T01:53:22;100261.34;;;13.16
64947;BMP280;51469;52.150;4.682;2023-04-12T01:55:57;100267.66;;;13.13
64947;BMP280;51469;52.150;4.682;2023-04-12T01:58:23;100258.38;;;12.93
64947;BMP280;51469;52.150;4.682;2023-04-12T02:00:50;100258.44;;;12.82
64947;BMP280;51469;52.150;4.682;2023-04-12T02:03:18;100243.25;;;13.15
64947;BMP280;51469;52.150;4.682;2023-04-12T02:05:44;100233.75;;;13.19
64947;BMP280;51469;52.150;4.682;2023-04-12T02:08:10;100239.13;;;13.33
64947;BMP280;51469;52.150;4.682;2023-04-12T02:10:36;100228.25;;;13.23
64947;BMP280;51469;52.150;4.682;2023-04-12T02:13:04;100221.09;;;13.29
64947;BMP280;51469;52.150;4.682;2023-04-12T02:15:30;100233.81;;;13.16
64947;BMP280;51469;52.150;4.682;2023-04-12T02:17:55;100220.59;;;12.97
64947;BMP280;51469;52.150;4.682;2023-04-12T02:20:23;100201.59;;;13.09
64947;BMP280;51469;52.150;4.682;2023-04-12T02:22:49;100188.19;;;13.15
64947;BMP280;51469;52.150;4.682;2023-04-12T02:25:14;100185.09;;;13.09
64947;BMP280;51469;52.150;4.682;2023-04-12T02:27:44;100186.13;;;13.22
64947;BMP280;51469;52.150;4.682;2023-04-12T02:30:11;100188.97;;;13.12
64947;BMP280;51469;52.150;4.682;2023-04-12T02:32:37;100182.94;;;13.24
64947;BMP280;51469;52.150;4.682;2023-04-12T02:35:10;100161.41;;;13.15
64947;BMP280;51469;52.150;4.682;2023-04-12T02:37:35;100157.28;;;13.34
64947;BMP280;51469;52.150;4.682;2023-04-12T02:40:02;100151.19;;;13.16
64947;BMP280;51469;52.150;4.682;2023-04-12T02:42:30;100152.38;;;13.15
64947;BMP280;51469;52.150;4.682;2023-04-12T02:44:55;100158.38;;;13.40
64947;BMP280;51469;52.150;4.682;2023-04-12T02:47:21;100143.13;;;13.32
64947;BMP280;51469;52.150;4.682;2023-04-12T02:49:46;100125.88;;;13.28
64947;BMP280;51469;52.150;4.682;2023-04-12T02:52:11;100136.66;;;13.49
64947;BMP280;51469;52.150;4.682;2023-04-12T02:54:37;100127.06;;;13.57
64947;BMP280;51469;52.150;4.682;2023-04-12T02:57:03;100123.97;;;13.55
64947;BMP280;51469;52.150;4.682;2023-04-12T02:59:28;100116.97;;;13.47
64947;BMP280;51469;52.150;4.682;2023-04-12T03:01:55;100115.56;;;13.32
64947;BMP280;51469;52.150;4.682;2023-04-12T03:04:20;100100.78;;;13.52
64947;BMP280;51469;52.150;4.682;2023-04-12T03:06:46;100095.41;;;13.42
64947;BMP280;51469;52.150;4.682;2023-04-12T03:09:18;100106.75;;;13.47
64947;BMP280;51469;52.150;4.682;2023-04-12T03:11:44;100080.78;;;13.45
64947;BMP280;51469;52.150;4.682;2023-04-12T03:14:10;100069.44;;;13.43
64947;BMP280;51469;52.150;4.682;2023-04-12T03:16:35;100075.09;;;13.29
64947;BMP280;51469;52.150;4.682;2023-04-12T03:19:01;100064.72;;;13.40
64947;BMP280;51469;52.150;4.682;2023-04-12T03:21:27;100078.47;;;13.10
64947;BMP280;51469;52.150;4.682;2023-04-12T03:23:52;100074.47;;;13.48
64947;BMP280;51469;52.150;4.682;2023-04-12T03:26:18;100066.84;;;13.59
64947;BMP280;51469;52.150;4.682;2023-04-12T03:28:47;100060.59;;;13.55
64947;BMP280;51469;52.150;4.682;2023-04-12T03:31:13;100064.97;;;13.52
64947;BMP280;51469;52.150;4.682;2023-04-12T03:33:39;100048.59;;;13.38
64947;BMP280;51469;52.150;4.682;2023-04-12T03:36:05;100052.31;;;13.55
64947;BMP280;51469;52.150;4.682;2023-04-12T03:38:31;100042.19;;;13.48
64947;BMP280;51469;52.150;4.682;2023-04-12T03:40:56;100051.28;;;13.72
64947;BMP280;51469;52.150;4.682;2023-04-12T03:43:22;100037.22;;;13.63
64947;BMP280;51469;52.150;4.682;2023-04-12T03:45:47;100037.09;;;13.73
64947;BMP280;51469;52.150;4.682;2023-04-12T03:48:13;100020.00;;;13.55
64947;BMP280;51469;52.150;4.682;2023-04-12T03:50:39;100027.59;;;13.74
64947;BMP280;51469;52.150;4.682;2023-04-12T03:53:09;100012.75;;;13.68
64947;BMP280;51469;52.150;4.682;2023-04-12T03:55:34;100011.31;;;13.60
64947;BMP280;51469;52.150;4.682;2023-04-12T03:58:02;100005.69;;;13.67
64947;BMP280;51469;52.150;4.682;2023-04-12T04:00:27;99988.97;;;13.78
64947;BMP280;51469;52.150;4.682;2023-04-12T04:02:53;99995.97;;;13.59
64947;BMP280;51469;52.150;4.682;2023-04-12T04:05:19;99988.31;;;13.70
64947;BMP280;51469;52.150;4.682;2023-04-12T04:07:44;99985.06;;;13.75
64947;BMP280;51469;52.150;4.682;2023-04-12T04:10:10;100005.50;;;13.78
64947;BMP280;51469;52.150;4.682;2023-04-12T04:12:35;99985.94;;;13.72
64947;BMP280;51469;52.150;4.682;2023-04-12T04:15:00;99986.59;;;13.80
64947;BMP280;51469;52.150;4.682;2023-04-12T04:17:26;99994.38;;;13.85
64947;BMP280;51469;52.150;4.682;2023-04-12T04:19:51;99984.09;;;13.89
64947;BMP280;51469;52.150;4.682;2023-04-12T04:22:16;99989.75;;;13.78
64947;BMP280;51469;52.150;4.682;2023-04-12T04:24:45;99989.81;;;13.75
64947;BMP280;51469;52.150;4.682;2023-04-12T04:27:12;99983.38;;;13.85
64947;BMP280;51469;52.150;4.682;2023-04-12T04:29:39;99988.91;;;14.04
64947;BMP280;51469;52.150;4.682;2023-04-12T04:32:09;99965.03;;;13.98
64947;BMP280;51469;52.150;4.682;2023-04-12T04:34:35;99972.34;;;14.08
64947;BMP280;51469;52.150;4.682;2023-04-12T04:37:01;99982.28;;;13.79
64947;BMP280;51469;52.150;4.682;2023-04-12T04:39:26;99981.13;;;13.76
64947;BMP280;51469;52.150;4.682;2023-04-12T04:41:51;99984.19;;;13.82
64947;BMP280;51469;52.150;4.682;2023-04-12T04:44:18;99971.97;;;13.83
64947;BMP280;51469;52.150;4.682;2023-04-12T04:46:44;99967.44;;;13.92
64947;BMP280;51469;52.150;4.682;2023-04-12T04:49:09;99990.09;;;14.07
64947;BMP280;51469;52.150;4.682;2023-04-12T04:51:35;99993.81;;;13.97
64947;BMP280;51469;52.150;4.682;2023-04-12T04:54:00;99986.13;;;14.08
64947;BMP280;51469;52.150;4.682;2023-04-12T04:56:26;99987.09;;;13.98
64947;BMP280;51469;52.150;4.682;2023-04-12T04:58:52;99981.56;;;13.98
64947;BMP280;51469;52.150;4.682;2023-04-12T05:01:17;99985.44;;;14.04
64947;BMP280;51469;52.150;4.682;2023-04-12T05:03:42;99997.09;;;14.11
64947;BMP280;51469;52.150;4.682;2023-04-12T05:06:12;100002.28;;;14.06
64947;BMP280;51469;52.150;4.682;2023-04-12T05:08:37;99989.34;;;14.03
64947;BMP280;51469;52.150;4.682;2023-04-12T05:11:03;99995.59;;;14.07
64947;BMP280;51469;52.150;4.682;2023-04-12T05:13:28;99990.66;;;14.18
64947;BMP280;51469;52.150;4.682;2023-04-12T05:15:54;99983.59;;;14.17
64947;BMP280;51469;52.150;4.682;2023-04-12T05:18:20;99985.44;;;14.23
64947;BMP280;51469;52.150;4.682;2023-04-12T05:20:45;99987.78;;;14.25
64947;BMP280;51469;52.150;4.682;2023-04-12T05:23:12;99977.19;;;14.23
64947;BMP280;51469;52.150;4.682;2023-04-12T05:25:43;99980.28;;;14.25
64947;BMP280;51469;52.150;4.682;2023-04-12T05:28:08;99986.09;;;14.31
64947;BMP280;51469;52.150;4.682;2023-04-12T05:30:38;99978.53;;;14.35
64947;BMP280;51469;52.150;4.682;2023-04-12T05:33:04;99984.06;;;14.35
64947;BMP280;51469;52.150;4.682;2023-04-12T05:35:29;99985.59;;;14.36
64947;BMP280;51469;52.150;4.682;2023-04-12T05:37:55;99970.59;;;14.37
64947;BMP280;51469;52.150;4.682;2023-04-12T05:40:20;99975.13;;;14.47
64947;BMP280;51469;52.150;4.682;2023-04-12T05:42:46;99975.88;;;14.51
64947;BMP280;51469;52.150;4.682;2023-04-12T05:45:11;99975.00;;;14.54
64947;BMP280;51469;52.150;4.682;2023-04-12T05:47:36;99978.06;;;14.59
64947;BMP280;51469;52.150;4.682;2023-04-12T05:50:02;99978.00;;;14.63
64947;BMP280;51469;52.150;4.682;2023-04-12T05:52:27;99983.53;;;14.63
64947;BMP280;51469;52.150;4.682;2023-04-12T05:54:53;99989.69;;;14.70
64947;BMP280;51469;52.150;4.682;2023-04-12T05:57:18;99991.94;;;14.75
64947;BMP280;51469;52.150;4.682;2023-04-12T05:59:43;99991.09;;;14.78
64947;BMP280;51469;52.150;4.682;2023-04-12T06:02:09;99983.25;;;14.77
64947;BMP280;51469;52.150;4.682;2023-04-12T06:04:35;99975.38;;;14.75
64947;BMP280;51469;52.150;4.682;2023-04-12T06:07:02;99989.63;;;14.74
64947;BMP280;51469;52.150;4.682;2023-04-12T06:09:27;99998.94;;;14.80
64947;BMP280;51469;52.150;4.682;2023-04-12T06:11:52;99993.41;;;14.80
64947;BMP280;51469;52.150;4.682;2023-04-12T06:14:18;99980.97;;;14.72
64947;BMP280;51469;52.150;4.682;2023-04-12T06:16:43;99984.03;;;14.77
64947;BMP280;51469;52.150;4.682;2023-04-12T06:19:08;99977.72;;;14.77
64947;BMP280;51469;52.150;4.682;2023-04-12T06:21:35;99975.00;;;14.93
64947;BMP280;51469;52.150;4.682;2023-04-12T06:24:00;99985.03;;;15.03
64947;BMP280;51469;52.150;4.682;2023-04-12T06:26:26;99985.03;;;15.03
64947;BMP280;51469;52.150;4.682;2023-04-12T06:28:51;99986.78;;;14.97
64947;BMP280;51469;52.150;4.682;2023-04-12T06:31:16;99988.41;;;14.95
64947;BMP280;51469;52.150;4.682;2023-04-12T06:33:42;99975.88;;;14.90
64947;BMP280;51469;52.150;4.682;2023-04-12T06:36:07;99977.59;;;14.84
64947;BMP280;51469;52.150;4.682;2023-04-12T06:38:33;99991.81;;;14.82
64947;BMP280;51469;52.150;4.682;2023-04-12T06:40:58;99988.69;;;14.80
64947;BMP280;51469;52.150;4.682;2023-04-12T06:43:24;99994.16;;;14.84
64947;BMP280;51469;52.150;4.682;2023-04-12T06:45:49;99993.66;;;14.89
64947;BMP280;51469;52.150;4.682;2023-04-12T06:48:15;99974.44;;;14.82
64947;BMP280;51469;52.150;4.682;2023-04-12T06:50:40;99983.44;;;14.86
64947;BMP280;51469;52.150;4.682;2023-04-12T06:53:05;99965.13;;;14.76
64947;BMP280;51469;52.150;4.682;2023-04-12T06:55:31;99982.09;;;14.94
64947;BMP280;51469;52.150;4.682;2023-04-12T06:57:56;99977.25;;;14.98
64947;BMP280;51469;52.150;4.682;2023-04-12T07:00:22;99975.44;;;15.11
64947;BMP280;51469;52.150;4.682;2023-04-12T07:02:48;99988.19;;;15.21
64947;BMP280;51469;52.150;4.682;2023-04-12T07:05:13;99982.84;;;15.14
64947;BMP280;51469;52.150;4.682;2023-04-12T07:07:38;99977.66;;;15.16
64947;BMP280;51469;52.150;4.682;2023-04-12T07:10:04;99983.88;;;15.20
64947;BMP280;51469;52.150;4.682;2023-04-12T07:12:30;99987.03;;;15.38
64947;BMP280;51469;52.150;4.682;2023-04-12T07:14:55;99991.38;;;15.39
64947;BMP280;51469;52.150;4.682;2023-04-12T07:17:21;99980.47;;;15.32
64947;BMP280;51469;52.150;4.682;2023-04-12T07:19:46;99985.66;;;15.30
64947;BMP280;51469;52.150;4.682;2023-04-12T07:22:13;99999.31;;;15.37
64947;BMP280;51469;52.150;4.682;2023-04-12T07:24:38;99985.69;;;15.46
64947;BMP280;51469;52.150;4.682;2023-04-12T07:27:03;99983.94;;;15.52
64947;BMP280;51469;52.150;4.682;2023-04-12T07:29:29;99988.63;;;15.55
64947;BMP280;51469;52.150;4.682;2023-04-12T07:31:54;99983.00;;;15.59
64947;BMP280;51469;52.150;4.682;2023-04-12T07:34:20;99973.66;;;15.52
64947;BMP280;51469;52.150;4.682;2023-04-12T07:36:45;99971.16;;;15.58
64947;BMP280;51469;52.150;4.682;2023-04-12T07:39:10;99967.72;;;15.70
64947;BMP280;51469;52.150;4.682;2023-04-12T07:41:37;99957.75;;;15.89
64947;BMP280;51469;52.150;4.682;2023-04-12T07:44:03;99950.91;;;16.09
64947;BMP280;51469;52.150;4.682;2023-04-12T07:46:29;99939.06;;;16.37
64947;BMP280;51469;52.150;4.682;2023-04-12T07:48:54;99940.66;;;16.63
64947;BMP280;51469;52.150;4.682;2023-04-12T07:51:20;99953.59;;;16.82
64947;BMP280;51469;52.150;4.682;2023-04-12T07:53:45;99939.41;;;16.80
64947;BMP280;51469;52.150;4.682;2023-04-12T07:56:13;99953.25;;;16.80
64947;BMP280;51469;52.150;4.682;2023-04-12T07:58:38;99949.72;;;16.51
64947;BMP280;51469;52.150;4.682;2023-04-12T08:03:39;99942.34;;;16.04
64947;BMP280;51469;52.150;4.682;2023-04-12T08:06:04;99962.94;;;16.03
64947;BMP280;51469;52.150;4.682;2023-04-12T08:08:30;99963.63;;;15.91
64947;BMP280;51469;52.150;4.682;2023-04-12T08:10:56;99963.59;;;15.78
64947;BMP280;51469;52.150;4.682;2023-04-12T08:13:21;99968.22;;;15.81
64947;BMP280;51469;52.150;4.682;2023-04-12T08:15:46;99963.47;;;15.66
64947;BMP280;51469;52.150;4.682;2023-04-12T08:18:12;99958.59;;;15.57
64947;BMP280;51469;52.150;4.682;2023-04-12T08:20:37;99964.41;;;15.43
64947;BMP280;51469;52.150;4.682;2023-04-12T08:23:08;99967.53;;;15.45
64947;BMP280;51469;52.150;4.682;2023-04-12T08:25:34;99963.75;;;15.55
64947;BMP280;51469;52.150;4.682;2023-04-12T08:27:59;99963.31;;;15.73
64947;BMP280;51469;52.150;4.682;2023-04-12T08:30:24;99958.56;;;15.89
64947;BMP280;51469;52.150;4.682;2023-04-12T08:32:51;99961.38;;;16.02
64947;BMP280;51469;52.150;4.682;2023-04-12T08:35:16;99966.28;;;16.10
64947;BMP280;51469;52.150;4.682;2023-04-12T08:37:41;99961.91;;;16.41
64947;BMP280;51469;52.150;4.682;2023-04-12T08:40:07;99973.03;;;16.66
64947;BMP280;51469;52.150;4.682;2023-04-12T08:42:34;99959.69;;;16.77
64947;BMP280;51469;52.150;4.682;2023-04-12T08:45:06;99955.03;;;16.87
64947;BMP280;51469;52.150;4.682;2023-04-12T08:47:37;99942.81;;;16.84
64947;BMP280;51469;52.150;4.682;2023-04-12T08:50:04;99952.06;;;17.06
64947;BMP280;51469;52.150;4.682;2023-04-12T08:52:34;99952.94;;;17.28
64947;BMP280;51469;52.150;4.682;2023-04-12T08:55:07;99944.06;;;17.33
64947;BMP280;51469;52.150;4.682;2023-04-12T08:57:34;99946.22;;;17.63
64947;BMP280;51469;52.150;4.682;2023-04-12T09:00:01;99939.06;;;17.87
64947;BMP280;51469;52.150;4.682;2023-04-12T09:02:27;99932.75;;;18.08
64947;BMP280;51469;52.150;4.682;2023-04-12T09:04:54;99928.97;;;18.36
64947;BMP280;51469;52.150;4.682;2023-04-12T09:07:21;99922.59;;;18.48
64947;BMP280;51469;52.150;4.682;2023-04-12T09:09:48;99938.69;;;18.62
64947;BMP280;51469;52.150;4.682;2023-04-12T09:12:14;99939.97;;;18.70
64947;BMP280;51469;52.150;4.682;2023-04-12T09:14:40;99939.06;;;18.73
64947;BMP280;51469;52.150;4.682;2023-04-12T09:17:25;99945.38;;;18.73
64947;BMP280;51469;52.150;4.682;2023-04-12T09:19:51;99942.28;;;18.71
64947;BMP280;51469;52.150;4.682;2023-04-12T09:22:17;99950.13;;;18.64
64947;BMP280;51469;52.150;4.682;2023-04-12T09:24:49;99947.63;;;18.57
64947;BMP280;51469;52.150;4.682;2023-04-12T09:27:17;99954.06;;;18.54
64947;BMP280;51469;52.150;4.682;2023-04-12T09:29:45;99947.56;;;18.48
64947;BMP280;51469;52.150;4.682;2023-04-12T09:32:23;99954.09;;;18.32
64947;BMP280;51469;52.150;4.682;2023-04-12T09:34:56;99961.56;;;18.23
64947;BMP280;51469;52.150;4.682;2023-04-12T09:37:22;99950.72;;;18.37
64947;BMP280;51469;52.150;4.682;2023-04-12T09:39:57;99947.88;;;18.50
64947;BMP280;51469;52.150;4.682;2023-04-12T09:42:23;99945.41;;;18.52
64947;BMP280;51469;52.150;4.682;2023-04-12T09:44:49;99940.19;;;18.54
64947;BMP280;51469;52.150;4.682;2023-04-12T09:47:14;99936.28;;;18.73
64947;BMP280;51469;52.150;4.682;2023-04-12T09:49:41;99931.69;;;18.79
64947;BMP280;51469;52.150;4.682;2023-04-12T09:52:08;99926.66;;;18.65
64947;BMP280;51469;52.150;4.682;2023-04-12T09:54:43;99937.50;;;18.72
64947;BMP280;51469;52.150;4.682;2023-04-12T09:57:09;99942.81;;;18.79
64947;BMP280;51469;52.150;4.682;2023-04-12T09:59:37;99949.91;;;18.58
64947;BMP280;51469;52.150;4.682;2023-04-12T10:02:17;99949.81;;;18.62
64947;BMP280;51469;52.150;4.682;2023-04-12T10:04:44;99952.28;;;18.17
64947;BMP280;51469;52.150;4.682;2023-04-12T10:07:10;99944.78;;;18.05
64947;BMP280;51469;52.150;4.682;2023-04-12T10:09:39;99937.28;;;17.93
64947;BMP280;51469;52.150;4.682;2023-04-12T10:12:06;99940.50;;;17.91
64947;BMP280;51469;52.150;4.682;2023-04-12T10:14:32;99943.88;;;18.08
64947;BMP280;51469;52.150;4.682;2023-04-12T10:16:59;99941.69;;;18.24
64947;BMP280;51469;52.150;4.682;2023-04-12T10:19:26;99933.56;;;18.30
64947;BMP280;51469;52.150;4.682;2023-04-12T10:21:52;99939.56;;;18.07
64947;BMP280;51469;52.150;4.682;2023-04-12T10:24:21;99917.03;;;18.05
64947;BMP280;51469;52.150;4.682;2023-04-12T10:26:47;99928.03;;;18.30
64947;BMP280;51469;52.150;4.682;2023-04-12T10:29:31;99929.31;;;18.68
64947;BMP280;51469;52.150;4.682;2023-04-12T10:32:17;99933.31;;;18.98
64947;BMP280;51469;52.150;4.682;2023-04-12T10:34:49;99923.34;;;19.18
64947;BMP280;51469;52.150;4.682;2023-04-12T10:37:14;99933.72;;;19.27
64947;BMP280;51469;52.150;4.682;2023-04-12T10:39:42;99935.00;;;19.53
64947;BMP280;51469;52.150;4.682;2023-04-12T10:44:47;99933.13;;;19.59
64947;BMP280;51469;52.150;4.682;2023-04-12T10:47:13;99930.38;;;19.77
64947;BMP280;51469;52.150;4.682;2023-04-12T10:49:38;99925.75;;;19.74
64947;BMP280;51469;52.150;4.682;2023-04-12T10:54:30;99925.13;;;19.61
64947;BMP280;51469;52.150;4.682;2023-04-12T10:56:56;99918.78;;;19.51
64947;BMP280;51469;52.150;4.682;2023-04-12T10:59:21;99935.84;;;19.14
64947;BMP280;51469;52.150;4.682;2023-04-12T11:04:31;99929.31;;;18.99
64947;BMP280;51469;52.150;4.682;2023-04-12T11:07:00;99933.66;;;19.09
64947;BMP280;51469;52.150;4.682;2023-04-12T11:09:28;99937.41;;;19.15
64947;BMP280;51469;52.150;4.682;2023-04-12T11:14:36;99933.03;;;19.05
64947;BMP280;51469;52.150;4.682;2023-04-12T11:19:36;99937.41;;;19.15
64947;BMP280;51469;52.150;4.682;2023-04-12T11:22:06;99948.16;;;19.04
64947;BMP280;51469;52.150;4.682;2023-04-12T11:24:32;99937.19;;;19.00
64947;BMP280;51469;52.150;4.682;2023-04-12T11:26:58;99949.09;;;19.01
64947;BMP280;51469;52.150;4.682;2023-04-12T11:29:24;99947.22;;;19.07
64947;BMP280;51469;52.150;4.682;2023-04-12T11:31:50;99950.72;;;19.29
64947;BMP280;51469;52.150;4.682;2023-04-12T11:34:16;99950.50;;;19.63
64947;BMP280;51469;52.150;4.682;2023-04-12T11:36:44;99955.78;;;19.88
64947;BMP280;51469;52.150;4.682;2023-04-12T11:39:09;99964.44;;;19.90
64947;BMP280;51469;52.150;4.682;2023-04-12T11:41:35;99953.91;;;19.94
64947;BMP280;51469;52.150;4.682;2023-04-12T11:44:00;99951.44;;;19.96
64947;BMP280;51469;52.150;4.682;2023-04-12T11:46:32;99960.41;;;20.18
64947;BMP280;51469;52.150;4.682;2023-04-12T11:48:58;99958.22;;;20.22
64947;BMP280;51469;52.150;4.682;2023-04-12T11:51:23;99960.53;;;20.32
64947;BMP280;51469;52.150;4.682;2023-04-12T11:53:53;99963.19;;;20.18
64947;BMP280;51469;52.150;4.682;2023-04-12T11:56:19;99961.47;;;20.02
64947;BMP280;51469;52.150;4.682;2023-04-12T11:58:48;99965.03;;;19.85
64947;BMP280;51469;52.150;4.682;2023-04-12T12:01:23;99962.84;;;19.89
64947;BMP280;51469;52.150;4.682;2023-04-12T12:03:49;99968.00;;;19.99
64947;BMP280;51469;52.150;4.682;2023-04-12T12:06:15;99970.59;;;20.12
64947;BMP280;51469;52.150;4.682;2023-04-12T12:08:41;99969.06;;;19.75
64947;BMP280;51469;52.150;4.682;2023-04-12T12:11:06;99968.09;;;19.69
64947;BMP280;51469;52.150;4.682;2023-04-12T12:13:54;99978.78;;;19.70
64947;BMP280;51469;52.150;4.682;2023-04-12T12:16:25;99980.47;;;19.77
64947;BMP280;51469;52.150;4.682;2023-04-12T12:18:51;99972.91;;;19.68
64947;BMP280;51469;52.150;4.682;2023-04-12T12:21:16;99973.06;;;19.74
64947;BMP280;51469;52.150;4.682;2023-04-12T12:23:43;99971.78;;;19.48
64947;BMP280;51469;52.150;4.682;2023-04-12T12:26:09;99972.69;;;19.36
64947;BMP280;51469;52.150;4.682;2023-04-12T12:28:38;99969.28;;;19.32
64947;BMP280;51469;52.150;4.682;2023-04-12T12:31:09;99984.19;;;19.16
64947;BMP280;51469;52.150;4.682;2023-04-12T12:33:41;99974.97;;;18.89
64947;BMP280;51469;52.150;4.682;2023-04-12T12:36:08;99980.53;;;18.89
64947;BMP280;51469;52.150;4.682;2023-04-12T12:38:34;99984.78;;;18.81
64947;BMP280;51469;52.150;4.682;2023-04-12T12:41:21;99989.97;;;18.70
64947;BMP280;51469;52.150;4.682;2023-04-12T12:43:49;99987.03;;;18.43
64947;BMP280;51469;52.150;4.682;2023-04-12T12:46:14;99979.75;;;18.67
64947;BMP280;51469;52.150;4.682;2023-04-12T12:48:42;99983.63;;;18.91
64947;BMP280;51469;52.150;4.682;2023-04-12T12:51:08;99988.63;;;19.05
64947;BMP280;51469;52.150;4.682;2023-04-12T12:53:38;99980.59;;;19.07
64947;BMP280;51469;52.150;4.682;2023-04-12T12:56:04;99936.13;;;19.07
64947;BMP280;51469;52.150;4.682;2023-04-12T12:58:30;99972.38;;;19.34
64947;BMP280;51469;52.150;4.682;2023-04-12T13:00:55;99964.69;;;19.56
64947;BMP280;51469;52.150;4.682;2023-04-12T13:03:21;99978.03;;;19.79
64947;BMP280;51469;52.150;4.682;2023-04-12T13:05:46;99965.53;;;19.83
64947;BMP280;51469;52.150;4.682;2023-04-12T13:08:11;99966.56;;;19.50
64947;BMP280;51469;52.150;4.682;2023-04-12T13:10:37;99967.50;;;19.65
64947;BMP280;51469;52.150;4.682;2023-04-12T13:13:02;99959.59;;;19.72
64947;BMP280;51469;52.150;4.682;2023-04-12T13:15:28;99966.72;;;19.64
64947;BMP280;51469;52.150;4.682;2023-04-12T13:17:54;99962.50;;;19.42
64947;BMP280;51469;52.150;4.682;2023-04-12T13:20:22;99953.59;;;19.74
64947;BMP280;51469;52.150;4.682;2023-04-12T13:22:48;99946.91;;;19.44
64947;BMP280;51469;52.150;4.682;2023-04-12T13:25:13;99961.91;;;19.56
64947;BMP280;51469;52.150;4.682;2023-04-12T13:27:39;99958.47;;;19.43
64947;BMP280;51469;52.150;4.682;2023-04-12T13:30:05;99977.34;;;19.48
64947;BMP280;51469;52.150;4.682;2023-04-12T13:32:30;99974.47;;;19.21
64947;BMP280;51469;52.150;4.682;2023-04-12T13:34:55;99968.66;;;19.28
64947;BMP280;51469;52.150;4.682;2023-04-12T13:37:21;99966.50;;;19.32
64947;BMP280;51469;52.150;4.682;2023-04-12T13:39:46;99962.31;;;18.88
64947;BMP280;51469;52.150;4.682;2023-04-12T13:42:12;99967.81;;;18.79
64947;BMP280;51469;52.150;4.682;2023-04-12T13:44:37;99954.25;;;18.90
64947;BMP280;51469;52.150;4.682;2023-04-12T13:47:03;99961.75;;;19.02
64947;BMP280;51469;52.150;4.682;2023-04-12T13:49:28;99965.84;;;19.19
64947;BMP280;51469;52.150;4.682;2023-04-12T13:51:54;99964.63;;;19.29
64947;BMP280;51469;52.150;4.682;2023-04-12T13:54:20;99951.03;;;19.31
64947;BMP280;51469;52.150;4.682;2023-04-12T13:56:46;99953.00;;;19.21
64947;BMP280;51469;52.150;4.682;2023-04-12T13:59:12;99947.59;;;19.18
64947;BMP280;51469;52.150;4.682;2023-04-12T14:01:37;99953.78;;;19.22
64947;BMP280;51469;52.150;4.682;2023-04-12T14:04:02;99936.91;;;19.07
64947;BMP280;51469;52.150;4.682;2023-04-12T14:06:28;99939.88;;;19.22
64947;BMP280;51469;52.150;4.682;2023-04-12T14:08:54;99946.78;;;19.08
64947;BMP280;51469;52.150;4.682;2023-04-12T14:11:22;99943.59;;;19.19
64947;BMP280;51469;52.150;4.682;2023-04-12T14:13:47;99942.69;;;18.91
64947;BMP280;51469;52.150;4.682;2023-04-12T14:16:13;99938.31;;;19.12
64947;BMP280;51469;52.150;4.682;2023-04-12T14:18:38;99935.81;;;19.53
64947;BMP280;51469;52.150;4.682;2023-04-12T14:21:04;99928.03;;;19.39
64947;BMP280;51469;52.150;4.682;2023-04-12T14:23:29;99924.78;;;19.32
64947;BMP280;51469;52.150;4.682;2023-04-12T14:25:55;99932.66;;;19.42
64947;BMP280;51469;52.150;4.682;2023-04-12T14:28:20;99921.72;;;19.66
64947;BMP280;51469;52.150;4.682;2023-04-12T14:30:46;99936.47;;;19.18